• Join FlightAware (Why Join?)
  • Login
  • US Flag 
04:47PM EDT


 

Airport Tracker/Info


-or-


 

Live Flight TrackerFlight Track Log ✈ N323RB ✈ 15-Jun-2014 ✈ KSTL - KJWN

Flight Track Log - Related Links

Times and Time Zones

All times are in EDT time to prevent confusion due to time zone crossing. See the N323RB flight status page for this flight to view local times or setup timezone preferences in your user account.

Time Position Orientation Groundspeed Altitude Reporting Facility
EDT Latitude Longitude Course Direction KTS MPH feet Rate Location/Type
03:29PM 38.7333 -90.3333 142° Southeast 105 121 1,100  Level Gateway (St. Louis) TRACON
03:30PM 38.7167 -90.3167 142° Southeast 113 130 1,800 660 Climbing Gateway (St. Louis) TRACON
03:31PM 38.6833 -90.3000 159° South 124 143 2,500 720 Climbing Gateway (St. Louis) TRACON
03:32PM 38.6500 -90.2833 159° South 120 138 3,300 720 Climbing Gateway (St. Louis) TRACON
03:33PM 38.6167 -90.2667 159° South 123 142 4,000 600 Climbing Gateway (St. Louis) TRACON
03:34PM 38.5833 -90.2500 159° South 128 147 4,600 540 Climbing Gateway (St. Louis) TRACON
03:35PM 38.5500 -90.2333 159° South 137 158 5,100 360 Climbing Gateway (St. Louis) TRACON
03:36PM 38.5167 -90.2167 159° South 145 167 5,400 360 Climbing Gateway (St. Louis) TRACON
03:37PM 38.4811 -90.1692 134° Southeast 162 186 6,000 480 Climbing Kansas City Center
03:38PM 38.4522 -90.1258 130° Southeast 162 186 6,500 360 Climbing Kansas City Center
03:39PM 38.4247 -90.0853 131° Southeast 153 176 6,800 120 Climbing Kansas City Center
03:40PM 38.3864 -90.0294 131° Southeast 167 192 6,800  Level Kansas City Center
03:41PM 38.3550 -89.9814 130° Southeast 171 197 6,800  Level Kansas City Center
03:42PM 38.3206 -89.9289 130° Southeast 177 204 6,800  Level Kansas City Center
03:43PM 38.2889 -89.8817 131° Southeast 176 203 6,800  Level Kansas City Center
03:44PM 38.2561 -89.8336 131° Southeast 177 204 6,800  Level Kansas City Center
03:45PM 38.2217 -89.7825 131° Southeast 177 204 6,800  Level Kansas City Center
03:46PM 38.1889 -89.7347 131° Southeast 177 204 6,800  Level Kansas City Center
03:47PM 38.1575 -89.6864 130° Southeast 177 204 6,800  Level Kansas City Center
03:48PM 38.1231 -89.6361 131° Southeast 177 204 6,800  Level Kansas City Center
03:49PM 38.0917 -89.5903 131° Southeast 175 201 6,900  Climbing Kansas City Center
03:50PM 38.0606 -89.5442 131° Southeast 174 200 6,900  Level Kansas City Center
03:51PM 38.0272 -89.4953 131° Southeast 173 199 6,900  Level Kansas City Center
03:52PM 37.9958 -89.4492 131° Southeast 172 198 6,900  Level Kansas City Center
03:53PM 37.9642 -89.4039 132° Southeast 172 198 6,900  Level Kansas City Center
03:55PM 37.9314 -89.3542 130° Southeast 172 198 6,900  Level Kansas City Center
03:56PM 37.9000 -89.3083 131° Southeast 172 198 6,900  Level Kansas City Center
03:57PM 37.8686 -89.2631 131° Southeast 172 198 6,900  Level Kansas City Center
03:58PM 37.8358 -89.2153 131° Southeast 170 196 6,900  Level Kansas City Center
03:59PM 37.8092 -89.1728 128° Southeast 169 194 6,900  Level Kansas City Center
04:00PM 37.7778 -89.1283 132° Southeast 169 194 6,900  Level Kansas City Center
04:01PM 37.7469 -89.0839 131° Southeast 169 194 6,900  Level Kansas City Center
04:02PM 37.7164 -89.0403 132° Southeast 169 194 6,900 -60 Level Kansas City Center
04:03PM 37.6797 -88.9869 131° Southeast 169 194 6,800  Descending Kansas City Center
04:04PM 37.6506 -88.9419 129° Southeast 168 193 6,900  Climbing Kansas City Center
04:05PM 37.6200 -88.8986 132° Southeast 167 192 6,900  Level Kansas City Center
04:06PM 37.5892 -88.8567 133° Southeast 166 191 7,000  Climbing Memphis Center
04:07PM 37.5597 -88.8156 132° Southeast 165 190 7,000  Level Memphis Center
04:08PM 37.5222 -88.7597 130° Southeast 167 192 7,000  Level Memphis Center
04:09PM 37.4925 -88.7178 132° Southeast 166 191 7,000  Level Memphis Center
04:10PM 37.4619 -88.6733 131° Southeast 166 191 7,000  Level Memphis Center
04:11PM 37.4292 -88.6275 132° Southeast 168 193 7,000  Level Memphis Center
04:12PM 37.3992 -88.5819 130° Southeast 170 196 7,000  Level Memphis Center
04:13PM 37.3678 -88.5386 132° Southeast 170 196 7,000  Level Memphis Center
04:14PM 37.3267 -88.4942 139° Southeast 166 191 7,000  Level Memphis Center
04:15PM 37.2869 -88.4686 153° Southeast 164 189 7,000  Level Memphis Center
04:16PM 37.2467 -88.4422 152° Southeast 163 188 7,000  Level Memphis Center
04:17PM 37.2131 -88.4033 137° Southeast 163 188 7,000  Level Memphis Center
04:18PM 37.1814 -88.3614 133° Southeast 164 189 7,000  Level Memphis Center
04:19PM 37.1522 -88.3156 129° Southeast 165 190 7,000  Level Memphis Center
04:20PM 37.1342 -88.2914 133° Southeast 170 196 7,000  Level Memphis Center
04:20PM 37.1200 -88.2700 130° Southeast 170 196 7,000  Level Memphis Center
04:21PM 37.0878 -88.2222 130° Southeast 170 196 7,000  Level Memphis Center
04:22PM 37.0572 -88.1769 130° Southeast 175 201 7,000  Level Memphis Center
04:23PM 37.0258 -88.1181 124° Southeast 174 200 7,000  Level Memphis Center
04:24PM 37.0044 -88.0594 115° Southeast 177 204 7,000  Level Memphis Center
04:25PM 36.9833 -88.0056 116° Southeast 183 211 7,000  Level Memphis Center
04:26PM 36.9614 -87.9450 114° Southeast 184 212 7,000  Level Memphis Center
04:27PM 36.9417 -87.8953 116° Southeast 182 209 7,000  Level Memphis Center
04:28PM 36.9372 -87.8858 120° Southeast 184 212 7,000  Level Memphis Center
04:28PM 36.9175 -87.8372 117° Southeast 182 209 7,000  Level Memphis Center
04:29PM 36.9139 -87.8303 123° Southeast 184 212 7,000  Level Memphis Center
04:29PM 36.8956 -87.7822 115° Southeast 181 208 7,000  Level Memphis Center
04:30PM 36.8883 -87.7633 116° Southeast 183 211 7,000  Level Memphis Center
04:30PM 36.8733 -87.7297 119° Southeast 182 209 7,000 -120 Level Memphis Center
04:31PM 36.8653 -87.7067 114° Southeast 183 211 6,900 -240 Descending Memphis Center
04:31PM 36.8514 -87.6747 119° Southeast 186 214 6,800 -240 Descending Memphis Center
04:32PM 36.8411 -87.6478 115° Southeast 185 213 6,700 -240 Descending Memphis Center
04:32PM 36.8272 -87.6144 117° Southeast 187 215 6,600 -240 Descending Memphis Center
04:33PM 36.8175 -87.5914 118° Southeast 185 213 6,500 -240 Descending Memphis Center
04:33PM 36.8031 -87.5594 119° Southeast 186 214 6,400 -240 Descending Memphis Center
04:34PM 36.7933 -87.5322 114° Southeast 186 214 6,300 -300 Descending Memphis Center
04:34PM 36.7789 -87.4964 117° Southeast 187 215 6,100 -360 Descending Memphis Center
04:35PM 36.7461 -87.4544 134° Southeast 180 207 5,800 -300 Descending Memphis Center
04:36PM 36.7275 -87.4392 147° Southeast 179 206 5,700 -300 Descending Memphis Center
04:37PM 36.6878 -87.3992 141° Southeast 177 204 5,400 -360 Descending Memphis Center
04:38PM 36.6433 -87.3539 141° Southeast 178 205 5,000 -240 Descending Memphis Center
04:39PM 36.6064 -87.3153 140° Southeast 177 204 5,000  Level Memphis Center
04:40PM 36.5708 -87.2803 142° Southeast 169 194 5,000  Level Memphis Center
04:41PM 36.5356 -87.2444 141° Southeast 166 191 5,000  Level Memphis Center
04:42PM 36.5003 -87.2078 140° Southeast 166 191 5,000 -60 Level Memphis Center
04:43PM 36.4706 -87.1639 130° Southeast 165 190 4,900 -300 Descending Memphis Center
04:44PM 36.4411 -87.1133 126° Southeast 171 197 4,500 -420 Descending Memphis Center
04:45PM 36.4075 -87.0561 126° Southeast 172 198 4,100 -420 Descending Memphis Center
04:46PM 36.3792 -87.0083 126° Southeast 173 199 3,700 -420 Descending Memphis Center
04:47PM 36.3511 -86.9606 126° Southeast 173 199 3,300 -360 Descending Memphis Center
04:48PM 36.3231 -86.9133 126° Southeast 172 198 3,000 -300 Descending Memphis Center